Archival Weather

Al Kharj

Al Kharj, Saudi Arabia (OEKJ)

Report from: Thursday, September 21, 2023 4:00 PM UTC
Current time: Friday, February 23, 2024 7:05 PM UTC

Current weather – Weather history – Daily summaries
Weather forecast

Temperature37.0°C (98.6°F)
Heat index34.0°C (93.2°F)
Dew point-5.0°C (23.0°F)
Winds 7 kts (3.6 m/s, 8.1 mph) Northeast (50°)
Clouds Sky clear
Altimeter29.85 in.Hg (1011 mB)
Relative humidity7 %
Density altitude2,636 ft. (804 m)
Remarks Ceiling and visibility OK
Flight conditions Visual Meteorological Conditions
Raw dataOEKJ 211600Z 05007KT CAVOK 37/M05 Q1011
An error has occurred. This application may no longer respond until reloaded. Reload 🗙